ハルビン の空港の天気 - METARとTAF

ハルビン太平国際空港 ( ZYHB / HRB ) - 中国 黒竜江省ハルビン市
飛行場実況気象(Metar)
観測時間05/28 18:00 CST (05/28 10:00 UTC)
風向・風速北 2m/s
視程10km以上
天気現象
なし
気温23℃
湿度29%
気圧996hPa
METARZYHB 281000Z 35002MPS 320V020 CAVOK 23/04 Q0996 NOSIG
過去の天気等 Google飛行場航空写真 Wunderground天気予報

過去48時間のMETAR

飛行場予報(TAF)
発表時間: 5/28 13:54 CST (5/28 05:54 UTC)
予報対象時間: 28日8時 CST ~ 29日8時 CST
風向・風速西 5m/s
視程6000m
全天の4割程度の雲 雲底高度 910m
28日12時 CST ~ 28日18時 CST に一時的に
風向・風速北北西 5m/s
28日18時 CST ~ 28日20時 CST に徐々に
風向・風速南東 4m/s
TAF AMD ZYHB 280554Z 2800/2824 27005MPS 6000 SCT030 TX25/2806Z TN12/2821Z
TEMPO 2804/2810 33005MPS
BECMG 2810/2812 14004MPS